sensor_id;sensor_type;location;lat;lon;timestamp;temperature;humidity
10411;DHT22;5251;52.112;8.606;2023-06-14T00:02:12;19.50;58.00
10411;DHT22;5251;52.112;8.606;2023-06-14T00:04:37;19.40;58.10
10411;DHT22;5251;52.112;8.606;2023-06-14T00:07:05;19.40;58.10
10411;DHT22;5251;52.112;8.606;2023-06-14T00:09:33;19.40;58.20
10411;DHT22;5251;52.112;8.606;2023-06-14T00:11:59;19.30;58.20
10411;DHT22;5251;52.112;8.606;2023-06-14T00:14:24;19.30;58.10
10411;DHT22;5251;52.112;8.606;2023-06-14T00:16:50;19.20;58.20
10411;DHT22;5251;52.112;8.606;2023-06-14T00:19:18;19.20;58.40
10411;DHT22;5251;52.112;8.606;2023-06-14T00:21:45;19.20;58.80
10411;DHT22;5251;52.112;8.606;2023-06-14T00:24:11;19.20;58.70
10411;DHT22;5251;52.112;8.606;2023-06-14T00:26:36;19.10;58.60
10411;DHT22;5251;52.112;8.606;2023-06-14T00:29:02;19.10;58.60
10411;DHT22;5251;52.112;8.606;2023-06-14T00:31:28;19.10;58.60
10411;DHT22;5251;52.112;8.606;2023-06-14T00:33:54;19.10;58.60
10411;DHT22;5251;52.112;8.606;2023-06-14T00:36:19;19.10;58.60
10411;DHT22;5251;52.112;8.606;2023-06-14T00:38:45;19.10;58.60
10411;DHT22;5251;52.112;8.606;2023-06-14T00:41:10;19.00;58.80
10411;DHT22;5251;52.112;8.606;2023-06-14T00:43:36;19.00;58.50
10411;DHT22;5251;52.112;8.606;2023-06-14T00:46:02;19.00;59.00
10411;DHT22;5251;52.112;8.606;2023-06-14T00:48:28;19.00;58.70
10411;DHT22;5251;52.112;8.606;2023-06-14T00:50:54;19.00;59.10
10411;DHT22;5251;52.112;8.606;2023-06-14T00:53:20;18.90;58.90
10411;DHT22;5251;52.112;8.606;2023-06-14T00:55:48;18.90;58.70
10411;DHT22;5251;52.112;8.606;2023-06-14T00:58:14;18.90;59.00
10411;DHT22;5251;52.112;8.606;2023-06-14T01:00:40;18.90;60.00
10411;DHT22;5251;52.112;8.606;2023-06-14T01:03:05;18.90;59.50
10411;DHT22;5251;52.112;8.606;2023-06-14T01:05:31;18.80;59.60
10411;DHT22;5251;52.112;8.606;2023-06-14T01:08:21;18.80;60.50
10411;DHT22;5251;52.112;8.606;2023-06-14T01:13:36;18.60;60.20
10411;DHT22;5251;52.112;8.606;2023-06-14T01:16:03;18.60;60.80
10411;DHT22;5251;52.112;8.606;2023-06-14T01:18:30;18.50;61.80
10411;DHT22;5251;52.112;8.606;2023-06-14T01:20:56;18.40;62.60
10411;DHT22;5251;52.112;8.606;2023-06-14T01:23:23;18.30;62.40
10411;DHT22;5251;52.112;8.606;2023-06-14T01:25:49;18.20;63.50
10411;DHT22;5251;52.112;8.606;2023-06-14T01:28:19;18.20;63.60
10411;DHT22;5251;52.112;8.606;2023-06-14T01:30:47;18.10;64.00
10411;DHT22;5251;52.112;8.606;2023-06-14T01:33:19;18.00;64.20
10411;DHT22;5251;52.112;8.606;2023-06-14T01:35:47;17.90;63.20
10411;DHT22;5251;52.112;8.606;2023-06-14T01:38:14;17.80;64.70
10411;DHT22;5251;52.112;8.606;2023-06-14T01:40:42;17.80;65.00
10411;DHT22;5251;52.112;8.606;2023-06-14T01:43:08;17.70;65.10
10411;DHT22;5251;52.112;8.606;2023-06-14T01:45:35;17.60;65.40
10411;DHT22;5251;52.112;8.606;2023-06-14T01:48:02;17.50;66.00
10411;DHT22;5251;52.112;8.606;2023-06-14T01:50:31;17.40;65.40
10411;DHT22;5251;52.112;8.606;2023-06-14T01:52:58;17.40;66.20
10411;DHT22;5251;52.112;8.606;2023-06-14T01:55:23;17.30;66.40
10411;DHT22;5251;52.112;8.606;2023-06-14T01:57:53;17.20;66.70
10411;DHT22;5251;52.112;8.606;2023-06-14T02:00:19;17.10;66.70
10411;DHT22;5251;52.112;8.606;2023-06-14T02:02:45;17.10;66.40
10411;DHT22;5251;52.112;8.606;2023-06-14T02:05:14;17.00;66.60
10411;DHT22;5251;52.112;8.606;2023-06-14T02:07:44;16.90;66.50
10411;DHT22;5251;52.112;8.606;2023-06-14T02:10:10;16.90;66.80
10411;DHT22;5251;52.112;8.606;2023-06-14T02:12:35;16.80;66.50
10411;DHT22;5251;52.112;8.606;2023-06-14T02:15:01;16.80;66.50
10411;DHT22;5251;52.112;8.606;2023-06-14T02:17:26;16.80;66.30
10411;DHT22;5251;52.112;8.606;2023-06-14T02:19:52;16.80;66.40
10411;DHT22;5251;52.112;8.606;2023-06-14T02:22:17;16.80;66.40
10411;DHT22;5251;52.112;8.606;2023-06-14T02:24:43;16.80;66.40
10411;DHT22;5251;52.112;8.606;2023-06-14T02:27:09;16.90;66.40
10411;DHT22;5251;52.112;8.606;2023-06-14T02:29:37;16.90;66.40
10411;DHT22;5251;52.112;8.606;2023-06-14T02:32:04;16.90;66.40
10411;DHT22;5251;52.112;8.606;2023-06-14T02:34:30;16.90;66.40
10411;DHT22;5251;52.112;8.606;2023-06-14T02:36:55;17.00;66.20
10411;DHT22;5251;52.112;8.606;2023-06-14T02:39:22;17.00;66.20
10411;DHT22;5251;52.112;8.606;2023-06-14T02:41:49;17.00;66.30
10411;DHT22;5251;52.112;8.606;2023-06-14T02:44:17;17.00;66.10
10411;DHT22;5251;52.112;8.606;2023-06-14T02:46:43;17.00;66.30
10411;DHT22;5251;52.112;8.606;2023-06-14T02:49:11;17.00;66.30
10411;DHT22;5251;52.112;8.606;2023-06-14T02:51:37;17.00;66.50
10411;DHT22;5251;52.112;8.606;2023-06-14T02:54:02;17.10;66.70
10411;DHT22;5251;52.112;8.606;2023-06-14T02:56:29;17.00;66.60
10411;DHT22;5251;52.112;8.606;2023-06-14T02:58:54;17.00;66.50
10411;DHT22;5251;52.112;8.606;2023-06-14T03:01:20;17.00;66.60
10411;DHT22;5251;52.112;8.606;2023-06-14T03:03:47;17.00;66.80
10411;DHT22;5251;52.112;8.606;2023-06-14T03:06:12;17.00;67.00
10411;DHT22;5251;52.112;8.606;2023-06-14T03:08:40;17.00;67.00
10411;DHT22;5251;52.112;8.606;2023-06-14T03:11:07;16.90;67.10
10411;DHT22;5251;52.112;8.606;2023-06-14T03:13:34;16.90;67.00
10411;DHT22;5251;52.112;8.606;2023-06-14T03:15:59;16.90;67.20
10411;DHT22;5251;52.112;8.606;2023-06-14T03:18:28;16.90;66.90
10411;DHT22;5251;52.112;8.606;2023-06-14T03:20:54;16.90;67.10
10411;DHT22;5251;52.112;8.606;2023-06-14T03:23:22;16.80;67.60
10411;DHT22;5251;52.112;8.606;2023-06-14T03:25:48;16.80;67.80
10411;DHT22;5251;52.112;8.606;2023-06-14T03:28:14;16.70;67.40
10411;DHT22;5251;52.112;8.606;2023-06-14T03:30:39;16.70;67.30
10411;DHT22;5251;52.112;8.606;2023-06-14T03:33:05;16.70;68.00
10411;DHT22;5251;52.112;8.606;2023-06-14T03:35:31;16.70;68.30
10411;DHT22;5251;52.112;8.606;2023-06-14T03:37:57;16.60;68.10
10411;DHT22;5251;52.112;8.606;2023-06-14T03:40:22;16.60;68.40
10411;DHT22;5251;52.112;8.606;2023-06-14T03:42:53;16.60;68.70
10411;DHT22;5251;52.112;8.606;2023-06-14T03:45:19;16.60;69.00
10411;DHT22;5251;52.112;8.606;2023-06-14T03:47:45;16.60;69.00
10411;DHT22;5251;52.112;8.606;2023-06-14T03:50:11;16.60;68.80
10411;DHT22;5251;52.112;8.606;2023-06-14T03:52:37;16.60;68.90
10411;DHT22;5251;52.112;8.606;2023-06-14T03:55:04;16.60;69.10
10411;DHT22;5251;52.112;8.606;2023-06-14T03:57:30;16.60;68.90
10411;DHT22;5251;52.112;8.606;2023-06-14T03:59:56;16.70;69.30
10411;DHT22;5251;52.112;8.606;2023-06-14T04:02:21;16.70;69.40
10411;DHT22;5251;52.112;8.606;2023-06-14T04:04:48;16.70;69.70
10411;DHT22;5251;52.112;8.606;2023-06-14T04:07:14;16.70;69.80
10411;DHT22;5251;52.112;8.606;2023-06-14T04:09:41;16.80;70.00
10411;DHT22;5251;52.112;8.606;2023-06-14T04:12:07;16.80;69.80
10411;DHT22;5251;52.112;8.606;2023-06-14T04:14:37;16.80;69.40
10411;DHT22;5251;52.112;8.606;2023-06-14T04:17:03;16.80;69.80
10411;DHT22;5251;52.112;8.606;2023-06-14T04:19:29;16.90;69.50
10411;DHT22;5251;52.112;8.606;2023-06-14T04:21:54;16.90;70.10
10411;DHT22;5251;52.112;8.606;2023-06-14T04:24:20;17.00;70.30
10411;DHT22;5251;52.112;8.606;2023-06-14T04:26:46;17.00;70.30
10411;DHT22;5251;52.112;8.606;2023-06-14T04:29:14;17.00;69.80
10411;DHT22;5251;52.112;8.606;2023-06-14T04:31:44;17.10;70.00
10411;DHT22;5251;52.112;8.606;2023-06-14T04:34:10;17.10;70.10
10411;DHT22;5251;52.112;8.606;2023-06-14T04:36:41;17.10;70.10
10411;DHT22;5251;52.112;8.606;2023-06-14T04:39:12;17.20;70.70
10411;DHT22;5251;52.112;8.606;2023-06-14T04:41:38;17.20;70.50
10411;DHT22;5251;52.112;8.606;2023-06-14T04:44:04;17.30;70.60
10411;DHT22;5251;52.112;8.606;2023-06-14T04:46:30;17.30;70.20
10411;DHT22;5251;52.112;8.606;2023-06-14T04:48:57;17.40;69.90
10411;DHT22;5251;52.112;8.606;2023-06-14T04:51:26;17.40;70.70
10411;DHT22;5251;52.112;8.606;2023-06-14T04:53:57;17.50;70.70
10411;DHT22;5251;52.112;8.606;2023-06-14T04:56:24;17.50;71.10
10411;DHT22;5251;52.112;8.606;2023-06-14T04:58:50;17.60;71.30
10411;DHT22;5251;52.112;8.606;2023-06-14T05:01:17;17.60;71.30
10411;DHT22;5251;52.112;8.606;2023-06-14T05:03:42;17.70;71.10
10411;DHT22;5251;52.112;8.606;2023-06-14T05:06:10;17.80;70.90
10411;DHT22;5251;52.112;8.606;2023-06-14T05:08:37;17.80;71.70
10411;DHT22;5251;52.112;8.606;2023-06-14T05:11:02;17.90;71.40
10411;DHT22;5251;52.112;8.606;2023-06-14T05:13:28;18.10;72.00
10411;DHT22;5251;52.112;8.606;2023-06-14T05:15:53;18.40;71.30
10411;DHT22;5251;52.112;8.606;2023-06-14T05:18:19;18.70;69.40
10411;DHT22;5251;52.112;8.606;2023-06-14T05:20:45;19.10;67.90
10411;DHT22;5251;52.112;8.606;2023-06-14T05:23:11;19.60;68.40
10411;DHT22;5251;52.112;8.606;2023-06-14T05:25:44;20.20;67.80
10411;DHT22;5251;52.112;8.606;2023-06-14T05:28:10;20.80;66.00
10411;DHT22;5251;52.112;8.606;2023-06-14T05:30:38;21.40;63.90
10411;DHT22;5251;52.112;8.606;2023-06-14T05:33:04;22.10;63.20
10411;DHT22;5251;52.112;8.606;2023-06-14T05:35:29;22.60;61.90
10411;DHT22;5251;52.112;8.606;2023-06-14T05:37:55;23.10;59.90
10411;DHT22;5251;52.112;8.606;2023-06-14T05:40:20;23.50;59.10
10411;DHT22;5251;52.112;8.606;2023-06-14T05:42:46;23.80;57.80
10411;DHT22;5251;52.112;8.606;2023-06-14T05:45:12;24.00;56.30
10411;DHT22;5251;52.112;8.606;2023-06-14T05:47:37;24.00;56.20
10411;DHT22;5251;52.112;8.606;2023-06-14T05:50:03;24.00;56.20
10411;DHT22;5251;52.112;8.606;2023-06-14T05:52:29;23.90;56.90
10411;DHT22;5251;52.112;8.606;2023-06-14T05:54:55;23.80;55.80
10411;DHT22;5251;52.112;8.606;2023-06-14T05:57:20;23.60;55.90
10411;DHT22;5251;52.112;8.606;2023-06-14T05:59:46;23.50;57.00
10411;DHT22;5251;52.112;8.606;2023-06-14T06:02:12;23.30;56.60
10411;DHT22;5251;52.112;8.606;2023-06-14T06:04:37;23.10;57.00
10411;DHT22;5251;52.112;8.606;2023-06-14T06:07:03;22.80;57.70
10411;DHT22;5251;52.112;8.606;2023-06-14T06:09:29;22.60;58.10
10411;DHT22;5251;52.112;8.606;2023-06-14T06:11:55;22.50;58.70
10411;DHT22;5251;52.112;8.606;2023-06-14T06:14:20;22.40;58.60
10411;DHT22;5251;52.112;8.606;2023-06-14T06:16:46;22.20;58.70
10411;DHT22;5251;52.112;8.606;2023-06-14T06:19:12;22.00;58.50
10411;DHT22;5251;52.112;8.606;2023-06-14T06:21:37;21.90;59.80
10411;DHT22;5251;52.112;8.606;2023-06-14T06:24:04;21.70;59.30
10411;DHT22;5251;52.112;8.606;2023-06-14T06:26:31;21.60;59.40
10411;DHT22;5251;52.112;8.606;2023-06-14T06:28:57;21.50;60.50
10411;DHT22;5251;52.112;8.606;2023-06-14T06:31:23;21.40;60.20
10411;DHT22;5251;52.112;8.606;2023-06-14T06:33:49;21.40;59.10
10411;DHT22;5251;52.112;8.606;2023-06-14T06:36:15;21.30;59.90
10411;DHT22;5251;52.112;8.606;2023-06-14T06:38:41;21.20;60.40
10411;DHT22;5251;52.112;8.606;2023-06-14T06:41:07;21.10;60.30
10411;DHT22;5251;52.112;8.606;2023-06-14T06:43:33;21.00;60.90
10411;DHT22;5251;52.112;8.606;2023-06-14T06:45:58;21.00;60.20
10411;DHT22;5251;52.112;8.606;2023-06-14T06:48:24;21.00;60.70
10411;DHT22;5251;52.112;8.606;2023-06-14T06:50:50;21.10;60.90
10411;DHT22;5251;52.112;8.606;2023-06-14T06:53:16;21.10;60.30
10411;DHT22;5251;52.112;8.606;2023-06-14T06:55:44;21.10;60.30
10411;DHT22;5251;52.112;8.606;2023-06-14T06:58:09;21.10;60.30
10411;DHT22;5251;52.112;8.606;2023-06-14T07:00:35;21.20;60.40
10411;DHT22;5251;52.112;8.606;2023-06-14T07:03:01;21.20;59.90
10411;DHT22;5251;52.112;8.606;2023-06-14T07:05:27;21.20;60.50
10411;DHT22;5251;52.112;8.606;2023-06-14T07:07:52;21.20;60.40
10411;DHT22;5251;52.112;8.606;2023-06-14T07:10:18;21.20;61.30
10411;DHT22;5251;52.112;8.606;2023-06-14T07:12:44;21.20;60.40
10411;DHT22;5251;52.112;8.606;2023-06-14T07:15:10;21.30;60.20
10411;DHT22;5251;52.112;8.606;2023-06-14T07:17:36;21.20;59.40
10411;DHT22;5251;52.112;8.606;2023-06-14T07:20:03;21.20;60.30
10411;DHT22;5251;52.112;8.606;2023-06-14T07:22:38;21.20;60.80
10411;DHT22;5251;52.112;8.606;2023-06-14T07:25:06;21.20;59.70
10411;DHT22;5251;52.112;8.606;2023-06-14T07:27:32;21.30;59.60
10411;DHT22;5251;52.112;8.606;2023-06-14T07:29:57;21.20;60.10
10411;DHT22;5251;52.112;8.606;2023-06-14T07:32:23;21.20;59.50
10411;DHT22;5251;52.112;8.606;2023-06-14T07:34:48;21.20;59.90
10411;DHT22;5251;52.112;8.606;2023-06-14T07:37:14;21.20;60.40
10411;DHT22;5251;52.112;8.606;2023-06-14T07:39:39;21.20;59.60
10411;DHT22;5251;52.112;8.606;2023-06-14T07:42:05;21.20;58.80
10411;DHT22;5251;52.112;8.606;2023-06-14T07:44:32;21.20;58.90
10411;DHT22;5251;52.112;8.606;2023-06-14T07:46:57;21.20;59.60
10411;DHT22;5251;52.112;8.606;2023-06-14T07:49:25;21.20;59.90
10411;DHT22;5251;52.112;8.606;2023-06-14T07:51:51;21.30;59.40
10411;DHT22;5251;52.112;8.606;2023-06-14T07:54:16;21.30;59.60
10411;DHT22;5251;52.112;8.606;2023-06-14T07:56:43;21.30;58.50
10411;DHT22;5251;52.112;8.606;2023-06-14T07:59:08;21.40;59.90
10411;DHT22;5251;52.112;8.606;2023-06-14T08:01:34;21.50;59.30
10411;DHT22;5251;52.112;8.606;2023-06-14T08:04:00;21.50;59.90
10411;DHT22;5251;52.112;8.606;2023-06-14T08:06:26;21.60;60.00
10411;DHT22;5251;52.112;8.606;2023-06-14T08:08:52;21.70;59.70
10411;DHT22;5251;52.112;8.606;2023-06-14T08:11:18;21.80;59.80
10411;DHT22;5251;52.112;8.606;2023-06-14T08:13:43;21.80;59.80
10411;DHT22;5251;52.112;8.606;2023-06-14T08:16:09;21.90;60.50
10411;DHT22;5251;52.112;8.606;2023-06-14T08:18:34;22.00;58.80
10411;DHT22;5251;52.112;8.606;2023-06-14T08:21:00;22.00;58.90
10411;DHT22;5251;52.112;8.606;2023-06-14T08:23:26;22.00;59.70
10411;DHT22;5251;52.112;8.606;2023-06-14T08:25:52;22.10;58.60
10411;DHT22;5251;52.112;8.606;2023-06-14T08:28:18;22.20;59.80
10411;DHT22;5251;52.112;8.606;2023-06-14T08:30:43;22.20;57.90
10411;DHT22;5251;52.112;8.606;2023-06-14T08:33:09;22.20;58.70
10411;DHT22;5251;52.112;8.606;2023-06-14T08:35:34;22.30;58.80
10411;DHT22;5251;52.112;8.606;2023-06-14T08:38:03;22.30;57.60
10411;DHT22;5251;52.112;8.606;2023-06-14T08:40:30;22.30;59.80
10411;DHT22;5251;52.112;8.606;2023-06-14T08:42:56;22.40;59.90
10411;DHT22;5251;52.112;8.606;2023-06-14T08:45:23;22.40;59.20
10411;DHT22;5251;52.112;8.606;2023-06-14T08:47:50;22.50;59.40
10411;DHT22;5251;52.112;8.606;2023-06-14T08:50:20;22.50;57.80
10411;DHT22;5251;52.112;8.606;2023-06-14T08:52:45;22.60;57.80
10411;DHT22;5251;52.112;8.606;2023-06-14T08:55:16;22.50;58.50
10411;DHT22;5251;52.112;8.606;2023-06-14T08:57:44;22.50;58.90
10411;DHT22;5251;52.112;8.606;2023-06-14T09:00:12;22.60;60.60
10411;DHT22;5251;52.112;8.606;2023-06-14T09:02:39;22.60;59.00
10411;DHT22;5251;52.112;8.606;2023-06-14T09:05:09;22.70;57.90
10411;DHT22;5251;52.112;8.606;2023-06-14T09:07:37;22.70;59.10
10411;DHT22;5251;52.112;8.606;2023-06-14T09:10:11;22.80;59.20
10411;DHT22;5251;52.112;8.606;2023-06-14T09:12:37;22.80;58.90
10411;DHT22;5251;52.112;8.606;2023-06-14T09:15:04;22.90;59.30
10411;DHT22;5251;52.112;8.606;2023-06-14T09:17:38;22.90;59.30
10411;DHT22;5251;52.112;8.606;2023-06-14T09:20:04;23.00;58.40
10411;DHT22;5251;52.112;8.606;2023-06-14T09:22:42;23.10;58.30
10411;DHT22;5251;52.112;8.606;2023-06-14T09:25:08;23.10;60.10
10411;DHT22;5251;52.112;8.606;2023-06-14T09:27:34;23.10;58.50
10411;DHT22;5251;52.112;8.606;2023-06-14T09:30:02;23.20;57.60
10411;DHT22;5251;52.112;8.606;2023-06-14T09:32:28;23.20;57.20
10411;DHT22;5251;52.112;8.606;2023-06-14T09:34:53;23.20;57.20
10411;DHT22;5251;52.112;8.606;2023-06-14T09:37:30;23.30;58.30
10411;DHT22;5251;52.112;8.606;2023-06-14T09:39:56;23.30;57.90
10411;DHT22;5251;52.112;8.606;2023-06-14T09:42:22;23.40;58.20
10411;DHT22;5251;52.112;8.606;2023-06-14T09:44:52;23.40;57.20
10411;DHT22;5251;52.112;8.606;2023-06-14T09:47:19;23.40;56.10
10411;DHT22;5251;52.112;8.606;2023-06-14T09:49:45;23.40;55.60
10411;DHT22;5251;52.112;8.606;2023-06-14T09:52:13;23.40;57.00
10411;DHT22;5251;52.112;8.606;2023-06-14T09:54:41;23.40;57.80
10411;DHT22;5251;52.112;8.606;2023-06-14T09:57:13;23.40;58.50
10411;DHT22;5251;52.112;8.606;2023-06-14T09:59:45;23.40;57.20
10411;DHT22;5251;52.112;8.606;2023-06-14T10:04:58;23.60;58.10
10411;DHT22;5251;52.112;8.606;2023-06-14T10:07:26;23.70;58.60
10411;DHT22;5251;52.112;8.606;2023-06-14T10:09:55;23.80;56.60
10411;DHT22;5251;52.112;8.606;2023-06-14T10:12:21;23.80;56.40
10411;DHT22;5251;52.112;8.606;2023-06-14T10:14:51;23.80;56.40
10411;DHT22;5251;52.112;8.606;2023-06-14T10:17:34;23.80;56.40
10411;DHT22;5251;52.112;8.606;2023-06-14T10:20:35;23.80;56.80
10411;DHT22;5251;52.112;8.606;2023-06-14T10:23:37;23.80;57.50
10411;DHT22;5251;52.112;8.606;2023-06-14T10:26:03;23.80;57.10
10411;DHT22;5251;52.112;8.606;2023-06-14T10:28:30;23.90;57.40
10411;DHT22;5251;52.112;8.606;2023-06-14T10:31:11;23.90;57.00
10411;DHT22;5251;52.112;8.606;2023-06-14T10:34:00;23.90;56.70
10411;DHT22;5251;52.112;8.606;2023-06-14T10:36:27;23.90;57.30
10411;DHT22;5251;52.112;8.606;2023-06-14T10:39:14;24.00;57.20
10411;DHT22;5251;52.112;8.606;2023-06-14T10:41:40;24.00;57.10
10411;DHT22;5251;52.112;8.606;2023-06-14T10:46:38;24.10;56.30
10411;DHT22;5251;52.112;8.606;2023-06-14T10:49:04;24.20;56.70
10411;DHT22;5251;52.112;8.606;2023-06-14T10:51:38;24.30;57.40
10411;DHT22;5251;52.112;8.606;2023-06-14T10:54:12;24.40;56.90
10411;DHT22;5251;52.112;8.606;2023-06-14T10:56:48;24.40;55.30
10411;DHT22;5251;52.112;8.606;2023-06-14T10:59:14;24.40;55.20
10411;DHT22;5251;52.112;8.606;2023-06-14T11:04:53;24.50;55.70
10411;DHT22;5251;52.112;8.606;2023-06-14T11:07:35;24.40;55.90
10411;DHT22;5251;52.112;8.606;2023-06-14T11:13:00;24.50;56.10
10411;DHT22;5251;52.112;8.606;2023-06-14T11:15:33;24.60;56.00
10411;DHT22;5251;52.112;8.606;2023-06-14T11:18:07;24.60;56.50
10411;DHT22;5251;52.112;8.606;2023-06-14T11:20:34;24.70;57.00
10411;DHT22;5251;52.112;8.606;2023-06-14T11:23:01;24.70;56.00
10411;DHT22;5251;52.112;8.606;2023-06-14T11:25:27;24.70;57.10
10411;DHT22;5251;52.112;8.606;2023-06-14T11:27:57;24.70;55.80
10411;DHT22;5251;52.112;8.606;2023-06-14T11:30:23;24.80;54.70
10411;DHT22;5251;52.112;8.606;2023-06-14T11:32:51;24.70;54.50
10411;DHT22;5251;52.112;8.606;2023-06-14T11:35:17;24.70;54.60
10411;DHT22;5251;52.112;8.606;2023-06-14T11:37:43;24.70;55.10
10411;DHT22;5251;52.112;8.606;2023-06-14T11:40:13;24.70;55.60
10411;DHT22;5251;52.112;8.606;2023-06-14T11:42:40;24.70;56.30
10411;DHT22;5251;52.112;8.606;2023-06-14T11:45:10;24.70;55.30
10411;DHT22;5251;52.112;8.606;2023-06-14T11:47:38;24.70;55.80
10411;DHT22;5251;52.112;8.606;2023-06-14T11:50:06;24.80;55.90
10411;DHT22;5251;52.112;8.606;2023-06-14T11:52:32;24.80;54.50
10411;DHT22;5251;52.112;8.606;2023-06-14T11:54:58;24.80;55.40
10411;DHT22;5251;52.112;8.606;2023-06-14T11:57:24;24.80;54.40
10411;DHT22;5251;52.112;8.606;2023-06-14T11:59:50;24.80;55.50
10411;DHT22;5251;52.112;8.606;2023-06-14T12:02:16;24.90;55.90
10411;DHT22;5251;52.112;8.606;2023-06-14T12:04:43;24.90;54.60
10411;DHT22;5251;52.112;8.606;2023-06-14T12:07:13;24.90;55.60
10411;DHT22;5251;52.112;8.606;2023-06-14T12:10:25;24.90;55.20
10411;DHT22;5251;52.112;8.606;2023-06-14T12:12:26;25.00;55.20
10411;DHT22;5251;52.112;8.606;2023-06-14T12:14:56;25.00;55.90
10411;DHT22;5251;52.112;8.606;2023-06-14T12:17:22;25.00;54.80
10411;DHT22;5251;52.112;8.606;2023-06-14T12:19:49;25.10;56.10
10411;DHT22;5251;52.112;8.606;2023-06-14T12:22:16;25.20;55.90
10411;DHT22;5251;52.112;8.606;2023-06-14T12:24:44;25.30;53.90
10411;DHT22;5251;52.112;8.606;2023-06-14T12:27:10;25.30;53.90
10411;DHT22;5251;52.112;8.606;2023-06-14T12:29:41;25.40;53.80
10411;DHT22;5251;52.112;8.606;2023-06-14T12:32:09;25.40;54.70
10411;DHT22;5251;52.112;8.606;2023-06-14T12:34:35;25.40;55.70
10411;DHT22;5251;52.112;8.606;2023-06-14T12:37:01;25.40;55.00
10411;DHT22;5251;52.112;8.606;2023-06-14T12:39:26;25.50;55.40
10411;DHT22;5251;52.112;8.606;2023-06-14T12:41:53;25.50;55.00
10411;DHT22;5251;52.112;8.606;2023-06-14T12:44:19;25.50;53.60
10411;DHT22;5251;52.112;8.606;2023-06-14T12:46:45;25.50;53.10
10411;DHT22;5251;52.112;8.606;2023-06-14T12:49:12;25.50;53.00
10411;DHT22;5251;52.112;8.606;2023-06-14T12:51:39;25.40;55.20
10411;DHT22;5251;52.112;8.606;2023-06-14T12:54:05;25.40;54.20
10411;DHT22;5251;52.112;8.606;2023-06-14T12:56:31;25.40;53.80
10411;DHT22;5251;52.112;8.606;2023-06-14T12:58:57;25.50;54.90
10411;DHT22;5251;52.112;8.606;2023-06-14T13:01:23;25.60;54.00
10411;DHT22;5251;52.112;8.606;2023-06-14T13:03:49;25.60;55.00
10411;DHT22;5251;52.112;8.606;2023-06-14T13:06:16;25.80;55.10
10411;DHT22;5251;52.112;8.606;2023-06-14T13:08:41;26.00;54.40
10411;DHT22;5251;52.112;8.606;2023-06-14T13:11:07;26.10;55.30
10411;DHT22;5251;52.112;8.606;2023-06-14T13:13:33;26.30;53.40
10411;DHT22;5251;52.112;8.606;2023-06-14T13:15:58;26.40;53.30
10411;DHT22;5251;52.112;8.606;2023-06-14T13:18:24;26.50;53.00
10411;DHT22;5251;52.112;8.606;2023-06-14T13:20:50;26.60;52.30
10411;DHT22;5251;52.112;8.606;2023-06-14T13:23:16;26.60;51.40
10411;DHT22;5251;52.112;8.606;2023-06-14T13:25:42;26.60;51.50
10411;DHT22;5251;52.112;8.606;2023-06-14T13:28:08;26.60;53.30
10411;DHT22;5251;52.112;8.606;2023-06-14T13:30:34;26.60;53.50
10411;DHT22;5251;52.112;8.606;2023-06-14T13:33:00;26.70;54.10
10411;DHT22;5251;52.112;8.606;2023-06-14T13:35:26;26.80;52.80
10411;DHT22;5251;52.112;8.606;2023-06-14T13:37:52;26.90;52.50
10411;DHT22;5251;52.112;8.606;2023-06-14T13:40:18;27.00;51.90
10411;DHT22;5251;52.112;8.606;2023-06-14T13:42:44;27.10;51.90
10411;DHT22;5251;52.112;8.606;2023-06-14T13:45:11;27.10;52.00
10411;DHT22;5251;52.112;8.606;2023-06-14T13:47:37;27.10;51.50
10411;DHT22;5251;52.112;8.606;2023-06-14T13:50:03;27.10;50.20
10411;DHT22;5251;52.112;8.606;2023-06-14T13:52:29;27.20;49.90
10411;DHT22;5251;52.112;8.606;2023-06-14T13:54:55;27.20;49.90
10411;DHT22;5251;52.112;8.606;2023-06-14T13:57:20;27.30;50.40
10411;DHT22;5251;52.112;8.606;2023-06-14T13:59:47;27.30;50.80
10411;DHT22;5251;52.112;8.606;2023-06-14T14:02:13;27.20;50.90
10411;DHT22;5251;52.112;8.606;2023-06-14T14:04:39;27.30;51.10
10411;DHT22;5251;52.112;8.606;2023-06-14T14:07:05;27.30;51.30
10411;DHT22;5251;52.112;8.606;2023-06-14T14:09:35;27.40;52.20
10411;DHT22;5251;52.112;8.606;2023-06-14T14:12:01;27.40;51.10
10411;DHT22;5251;52.112;8.606;2023-06-14T14:14:31;27.30;51.70
10411;DHT22;5251;52.112;8.606;2023-06-14T14:16:57;27.40;51.70
10411;DHT22;5251;52.112;8.606;2023-06-14T14:19:23;27.30;51.50
10411;DHT22;5251;52.112;8.606;2023-06-14T14:21:49;27.40;50.80
10411;DHT22;5251;52.112;8.606;2023-06-14T14:24:15;27.40;51.30
10411;DHT22;5251;52.112;8.606;2023-06-14T14:26:41;27.40;52.00
10411;DHT22;5251;52.112;8.606;2023-06-14T14:29:07;27.40;51.80
10411;DHT22;5251;52.112;8.606;2023-06-14T14:31:33;27.50;51.80
10411;DHT22;5251;52.112;8.606;2023-06-14T14:33:58;27.50;52.20
10411;DHT22;5251;52.112;8.606;2023-06-14T14:36:24;27.70;52.40
10411;DHT22;5251;52.112;8.606;2023-06-14T14:38:49;27.70;50.20
10411;DHT22;5251;52.112;8.606;2023-06-14T14:41:17;27.70;50.00
10411;DHT22;5251;52.112;8.606;2023-06-14T14:43:43;27.60;51.00
10411;DHT22;5251;52.112;8.606;2023-06-14T14:46:08;27.60;50.30
10411;DHT22;5251;52.112;8.606;2023-06-14T14:48:34;27.50;49.80
10411;DHT22;5251;52.112;8.606;2023-06-14T14:50:59;27.40;50.70
10411;DHT22;5251;52.112;8.606;2023-06-14T14:53:25;27.30;49.70
10411;DHT22;5251;52.112;8.606;2023-06-14T14:55:51;27.30;51.60
10411;DHT22;5251;52.112;8.606;2023-06-14T14:58:16;27.30;51.10
10411;DHT22;5251;52.112;8.606;2023-06-14T15:00:45;27.20;51.40
10411;DHT22;5251;52.112;8.606;2023-06-14T15:03:11;27.30;52.00
10411;DHT22;5251;52.112;8.606;2023-06-14T15:05:37;27.20;51.40
10411;DHT22;5251;52.112;8.606;2023-06-14T15:08:03;27.30;52.30
10411;DHT22;5251;52.112;8.606;2023-06-14T15:10:29;27.20;51.60
10411;DHT22;5251;52.112;8.606;2023-06-14T15:12:54;27.20;50.70
10411;DHT22;5251;52.112;8.606;2023-06-14T15:15:21;27.10;51.10
10411;DHT22;5251;52.112;8.606;2023-06-14T15:17:47;27.10;51.10
10411;DHT22;5251;52.112;8.606;2023-06-14T15:20:12;27.00;51.20
10411;DHT22;5251;52.112;8.606;2023-06-14T15:22:39;27.00;51.70
10411;DHT22;5251;52.112;8.606;2023-06-14T15:25:05;27.00;52.30
10411;DHT22;5251;52.112;8.606;2023-06-14T15:27:31;27.00;52.40
10411;DHT22;5251;52.112;8.606;2023-06-14T15:29:56;27.00;51.90
10411;DHT22;5251;52.112;8.606;2023-06-14T15:32:22;27.10;51.30
10411;DHT22;5251;52.112;8.606;2023-06-14T15:34:48;27.10;50.40
10411;DHT22;5251;52.112;8.606;2023-06-14T15:37:13;27.10;52.30
10411;DHT22;5251;52.112;8.606;2023-06-14T15:39:39;27.20;51.60
10411;DHT22;5251;52.112;8.606;2023-06-14T15:42:05;27.20;51.80
10411;DHT22;5251;52.112;8.606;2023-06-14T15:44:31;27.20;51.60
10411;DHT22;5251;52.112;8.606;2023-06-14T15:46:57;27.20;51.70
10411;DHT22;5251;52.112;8.606;2023-06-14T15:49:22;27.30;52.20
10411;DHT22;5251;52.112;8.606;2023-06-14T15:51:48;27.30;52.10
10411;DHT22;5251;52.112;8.606;2023-06-14T15:54:14;27.40;51.60
10411;DHT22;5251;52.112;8.606;2023-06-14T15:56:39;27.30;50.50
10411;DHT22;5251;52.112;8.606;2023-06-14T15:59:05;27.30;51.20